createdAt,value
2023-01-11T00:00:29.870Z,100336.22
2023-01-11T00:02:58.233Z,100331.94
2023-01-11T00:05:24.934Z,100323.81
2023-01-11T00:07:51.918Z,100327.88
2023-01-11T00:10:19.317Z,100326.28
2023-01-11T00:12:46.693Z,100317.31
2023-01-11T00:15:14.047Z,100323.84
2023-01-11T00:17:41.511Z,100306.97
2023-01-11T00:20:09.908Z,100306.69
2023-01-11T00:22:36.964Z,100318.13
2023-01-11T00:25:04.023Z,100305.16
2023-01-11T00:27:30.873Z,100298.81
2023-01-11T00:29:57.527Z,100288.41
2023-01-11T00:32:24.205Z,100292.56
2023-01-11T00:34:50.841Z,100283.84
2023-01-11T00:37:17.425Z,100289.19
2023-01-11T00:39:44.175Z,100277.50
2023-01-11T00:42:30.682Z,100282.47
2023-01-11T00:45:15.850Z,100274.66
2023-01-11T00:47:57.703Z,100266.19
2023-01-11T00:50:25.868Z,100262.09
2023-01-11T00:52:52.793Z,100266.53
2023-01-11T00:55:19.546Z,100261.31
2023-01-11T00:57:46.149Z,100259.81
2023-01-11T01:00:13.174Z,100220.88
2023-01-11T01:02:40.516Z,100231.16
2023-01-11T01:05:07.484Z,100233.38
2023-01-11T01:07:34.114Z,100222.38
2023-01-11T01:10:00.695Z,100222.69
2023-01-11T01:12:46.530Z,100212.06
2023-01-11T01:15:13.399Z,100211.59
2023-01-11T01:17:40.041Z,100225.78
2023-01-11T01:20:07.445Z,100205.38
2023-01-11T01:22:34.346Z,100214.69
2023-01-11T01:25:00.900Z,100203.00
2023-01-11T01:27:27.764Z,100195.38
2023-01-11T01:29:54.627Z,100195.03
2023-01-11T01:32:21.524Z,100203.28
2023-01-11T01:34:53.789Z,100191.72
2023-01-11T01:37:20.453Z,100192.28
2023-01-11T01:39:47.057Z,100181.31
2023-01-11T01:42:20.134Z,100183.41
2023-01-11T01:45:02.483Z,100184.91
2023-01-11T01:47:38.626Z,100186.25
2023-01-11T01:50:12.097Z,100179.75
2023-01-11T01:52:38.927Z,100177.28
2023-01-11T01:55:11.455Z,100180.59
2023-01-11T01:57:41.703Z,100177.00
2023-01-11T02:00:11.359Z,100174.66
2023-01-11T02:02:40.981Z,100168.28
2023-01-11T02:05:08.720Z,100175.41
2023-01-11T02:07:38.698Z,100163.69
2023-01-11T02:10:15.299Z,100167.94
2023-01-11T02:13:12.171Z,100162.94
2023-01-11T02:15:38.897Z,100158.53
2023-01-11T02:18:11.773Z,100148.66
2023-01-11T02:21:32.761Z,100131.75
2023-01-11T02:24:21.075Z,100149.56
2023-01-11T02:27:19.652Z,100132.81
2023-01-11T02:29:49.147Z,100128.25
2023-01-11T02:32:31.537Z,100112.56
2023-01-11T02:35:26.563Z,100121.75
2023-01-11T02:38:19.133Z,100115.13
2023-01-11T02:41:07.285Z,100111.28
2023-01-11T02:44:07.756Z,100112.38
2023-01-11T02:46:39.858Z,100110.63
2023-01-11T02:49:21.683Z,100106.59
2023-01-11T02:51:56.603Z,100099.81
2023-01-11T02:54:24.577Z,100087.56
2023-01-11T02:56:56.301Z,100094.41
2023-01-11T02:59:28.102Z,100092.63
2023-01-11T03:01:57.253Z,100102.69
2023-01-11T03:04:28.501Z,100107.56
2023-01-11T03:07:20.410Z,100103.38
2023-01-11T03:10:01.803Z,100094.16
2023-01-11T03:12:55.504Z,100093.00
2023-01-11T03:15:22.036Z,100104.81
2023-01-11T03:18:18.158Z,100100.88
2023-01-11T03:20:55.860Z,100100.00
2023-01-11T03:23:26.780Z,100097.44
2023-01-11T03:27:01.361Z,100088.31
2023-01-11T03:29:39.876Z,100089.72
2023-01-11T03:32:21.062Z,100078.19
2023-01-11T03:35:06.591Z,100070.13
2023-01-11T03:37:59.440Z,100073.97
2023-01-11T03:40:31.153Z,100073.25
2023-01-11T03:43:12.320Z,100072.34
2023-01-11T03:45:51.127Z,100069.28
2023-01-11T03:48:22.532Z,100055.69
2023-01-11T03:50:51.481Z,100059.78
2023-01-11T03:53:20.865Z,100061.63
2023-01-11T03:55:53.343Z,100051.59
2023-01-11T03:58:20.212Z,100054.16
2023-01-11T04:00:48.619Z,100054.56
2023-01-11T04:03:15.839Z,100038.13
2023-01-11T04:05:46.446Z,100044.03
2023-01-11T04:08:13.334Z,100041.75
2023-01-11T04:10:40.136Z,100042.03
2023-01-11T04:13:06.806Z,100049.47
2023-01-11T04:15:34.735Z,100047.50
2023-01-11T04:18:07.562Z,100041.44
2023-01-11T04:20:36.994Z,100028.22
2023-01-11T04:23:07.639Z,100024.31
2023-01-11T04:25:34.368Z,100023.88
2023-01-11T04:28:04.219Z,100020.03
2023-01-11T04:30:31.768Z,100027.22
2023-01-11T04:33:01.746Z,100025.38
2023-01-11T04:35:28.841Z,100028.44
2023-01-11T04:37:57.186Z,100026.53
2023-01-11T04:40:25.199Z,100013.03
2023-01-11T04:42:51.924Z,100020.50
2023-01-11T04:45:19.169Z,100011.75
2023-01-11T04:47:45.769Z,100012.53
2023-01-11T04:50:12.821Z,100015.63
2023-01-11T04:52:41.493Z,100011.13
2023-01-11T04:55:09.150Z,100027.00
2023-01-11T04:57:36.169Z,100018.34
2023-01-11T05:00:05.066Z,100012.72
2023-01-11T05:02:31.650Z,100013.72
2023-01-11T05:04:58.571Z,99998.94
2023-01-11T05:07:25.486Z,100013.03
2023-01-11T05:09:52.085Z,100005.75
2023-01-11T05:12:18.711Z,100020.34
2023-01-11T05:14:45.431Z,100015.63
2023-01-11T05:17:16.135Z,100012.03
2023-01-11T05:19:43.330Z,100012.66
2023-01-11T05:22:10.509Z,100027.78
2023-01-11T05:24:37.075Z,100023.75
2023-01-11T05:27:04.927Z,100015.28
2023-01-11T05:29:31.659Z,100016.22
2023-01-11T05:31:58.256Z,100021.03
2023-01-11T05:34:24.796Z,100029.47
2023-01-11T05:36:51.476Z,100023.38
2023-01-11T05:39:18.092Z,100015.53
2023-01-11T05:41:44.981Z,100022.72
2023-01-11T05:44:31.290Z,100025.25
2023-01-11T05:46:58.149Z,100017.66
2023-01-11T05:49:24.901Z,100019.09
2023-01-11T05:51:51.470Z,100024.66
2023-01-11T05:54:18.052Z,100021.44
2023-01-11T05:56:47.570Z,100024.81
2023-01-11T05:59:14.179Z,100023.50
2023-01-11T06:01:40.796Z,100011.81
2023-01-11T06:04:08.492Z,100015.09
2023-01-11T06:06:35.966Z,100027.59
2023-01-11T06:09:02.852Z,100027.78
2023-01-11T06:11:29.400Z,100029.09
2023-01-11T06:13:56.104Z,100024.91
2023-01-11T06:16:23.639Z,100030.16
2023-01-11T06:18:52.604Z,100032.31
2023-01-11T06:21:20.158Z,100026.63
2023-01-11T06:23:50.591Z,100027.00
2023-01-11T06:26:20.066Z,100029.38
2023-01-11T06:28:47.286Z,100035.50
2023-01-11T06:31:17.073Z,100029.28
2023-01-11T06:33:44.605Z,100036.28
2023-01-11T06:36:13.501Z,100030.72
2023-01-11T06:38:40.675Z,100023.31
2023-01-11T06:41:08.464Z,100021.03
2023-01-11T06:43:36.721Z,100028.31
2023-01-11T06:46:04.236Z,100016.34
2023-01-11T06:48:31.291Z,100023.25
2023-01-11T06:50:59.078Z,100021.31
2023-01-11T06:53:28.892Z,100029.00
2023-01-11T06:55:57.587Z,100036.69
2023-01-11T06:58:25.575Z,100031.59
2023-01-11T07:00:53.911Z,100024.69
2023-01-11T07:03:21.262Z,100028.97
2023-01-11T07:05:48.025Z,100045.28
2023-01-11T07:08:14.998Z,100057.22
2023-01-11T07:10:43.641Z,100052.31
2023-01-11T07:13:12.207Z,100058.41
2023-01-11T07:15:39.173Z,100062.44
2023-01-11T07:18:08.516Z,100054.66
2023-01-11T07:20:35.091Z,100065.53
2023-01-11T07:23:02.011Z,100070.66
2023-01-11T07:25:29.548Z,100069.41
2023-01-11T07:28:00.819Z,100072.53
2023-01-11T07:30:29.612Z,100076.44
2023-01-11T07:32:58.000Z,100079.38
2023-01-11T07:35:24.874Z,100080.00
2023-01-11T07:37:51.488Z,100080.88
2023-01-11T07:40:18.622Z,100085.81
2023-01-11T07:43:10.810Z,100075.94
2023-01-11T07:45:47.238Z,100084.47
2023-01-11T07:48:15.521Z,100083.91
2023-01-11T07:50:44.724Z,100089.53
2023-01-11T07:53:12.673Z,100083.75
2023-01-11T07:55:40.536Z,100094.69
2023-01-11T07:58:10.788Z,100094.38
2023-01-11T08:00:37.416Z,100093.56
2023-01-11T08:03:04.185Z,100091.16
2023-01-11T08:05:30.838Z,100087.94
2023-01-11T08:07:57.683Z,100084.56
2023-01-11T08:10:24.817Z,100098.56
2023-01-11T08:13:10.052Z,100094.34
2023-01-11T08:15:36.916Z,100103.25
2023-01-11T08:18:06.651Z,100109.44
2023-01-11T08:20:33.838Z,100118.94
2023-01-11T08:23:05.770Z,100116.78
2023-01-11T08:25:33.328Z,100115.50
2023-01-11T08:28:05.618Z,100123.16
2023-01-11T08:30:32.373Z,100130.75
2023-01-11T08:33:01.634Z,100137.09
2023-01-11T08:35:28.521Z,100137.00
2023-01-11T08:37:55.090Z,100132.97
2023-01-11T08:40:24.032Z,100130.63
2023-01-11T08:42:57.573Z,100122.97
2023-01-11T08:45:24.982Z,100138.47
2023-01-11T08:47:52.296Z,100132.75
2023-01-11T08:50:22.098Z,100136.47
2023-01-11T08:52:50.908Z,100134.47
2023-01-11T08:55:18.023Z,100134.56
2023-01-11T08:57:44.979Z,100133.19
2023-01-11T09:00:12.304Z,100136.41
2023-01-11T09:02:38.908Z,100133.94
2023-01-11T09:05:06.013Z,100129.75
2023-01-11T09:07:32.585Z,100140.06
2023-01-11T09:09:59.220Z,100151.09
2023-01-11T09:12:27.586Z,100164.06
2023-01-11T09:14:54.186Z,100170.69
2023-01-11T09:17:20.781Z,100178.06
2023-01-11T09:19:47.331Z,100181.00
2023-01-11T09:22:13.974Z,100182.78
2023-01-11T09:24:40.577Z,100190.25
2023-01-11T09:27:07.227Z,100196.63
2023-01-11T09:29:37.052Z,100205.28
2023-01-11T09:32:04.364Z,100191.09
2023-01-11T09:34:31.004Z,100186.81
2023-01-11T09:37:00.499Z,100177.56
2023-01-11T09:39:28.727Z,100177.06
2023-01-11T09:42:11.236Z,100180.00
2023-01-11T09:45:24.553Z,100168.28
2023-01-11T09:48:04.750Z,100176.03
2023-01-11T09:50:41.139Z,100172.13
2023-01-11T09:53:09.763Z,100164.78
2023-01-11T09:55:46.716Z,100170.63
2023-01-11T09:58:24.093Z,100176.03
2023-01-11T10:01:03.301Z,100181.41
2023-01-11T10:03:58.389Z,100183.09
2023-01-11T10:06:58.553Z,100190.84
2023-01-11T10:18:22.038Z,100204.41
2023-01-11T10:18:53.775Z,100194.97
2023-01-11T10:21:32.547Z,100206.19
2023-01-11T10:24:12.291Z,100202.41
2023-01-11T10:26:40.336Z,100201.72
2023-01-11T10:29:16.920Z,100204.81
2023-01-11T10:32:09.548Z,100200.81
2023-01-11T10:35:13.596Z,100206.38
2023-01-11T10:38:04.917Z,100221.50
2023-01-11T10:41:03.300Z,100214.91
2023-01-11T10:43:35.186Z,100209.22
2023-01-11T10:46:13.402Z,100216.31
2023-01-11T10:48:42.574Z,100218.88
2023-01-11T10:51:32.267Z,100225.31
2023-01-11T10:54:14.230Z,100221.47
2023-01-11T10:57:01.920Z,100214.78
2023-01-11T10:59:49.781Z,100207.19
2023-01-11T11:02:34.698Z,100209.59
2023-01-11T11:05:05.357Z,100210.53
2023-01-11T11:07:43.924Z,100206.97
2023-01-11T11:10:32.247Z,100206.03
2023-01-11T11:13:13.902Z,100202.59
2023-01-11T11:15:55.208Z,100200.38
2023-01-11T11:18:22.238Z,100197.16
2023-01-11T11:20:48.875Z,100201.63
2023-01-11T11:23:19.254Z,100198.41
2023-01-11T11:25:57.413Z,100200.13
2023-01-11T11:28:25.954Z,100190.38
2023-01-11T11:30:55.915Z,100198.91
2023-01-11T11:33:23.959Z,100206.78
2023-01-11T11:36:07.918Z,100200.22
2023-01-11T11:38:35.727Z,100201.28
2023-01-11T11:41:17.243Z,100192.00
2023-01-11T11:43:46.595Z,100197.41
2023-01-11T11:46:19.450Z,100196.16
2023-01-11T11:49:16.234Z,100210.44
2023-01-11T11:51:45.674Z,100209.56
2023-01-11T11:54:25.787Z,100208.97
2023-01-11T11:56:53.779Z,100198.34
2023-01-11T11:59:22.719Z,100199.41
2023-01-11T12:01:57.766Z,100193.59
2023-01-11T12:04:37.023Z,100197.16
2023-01-11T12:07:23.972Z,100196.28
2023-01-11T12:09:59.893Z,100203.41
2023-01-11T12:12:29.221Z,100199.28
2023-01-11T12:15:19.604Z,100208.28
2023-01-11T12:17:46.791Z,100198.56
2023-01-11T12:20:22.374Z,100206.28
2023-01-11T12:22:50.063Z,100205.50
2023-01-11T12:25:21.559Z,100214.41
2023-01-11T12:28:15.359Z,100207.72
2023-01-11T12:30:57.065Z,100214.06
2023-01-11T12:33:26.450Z,100204.19
2023-01-11T12:36:08.026Z,100215.28
2023-01-11T12:39:04.984Z,100218.28
2023-01-11T12:41:47.969Z,100215.97
2023-01-11T12:44:48.213Z,100218.84
2023-01-11T12:47:35.076Z,100220.72
2023-01-11T12:50:27.963Z,100221.13
2023-01-11T12:53:28.805Z,100227.97
2023-01-11T12:56:20.335Z,100214.56
2023-01-11T12:58:56.218Z,100209.91
2023-01-11T13:01:36.734Z,100217.78
2023-01-11T13:04:57.253Z,100209.66
2023-01-11T13:07:35.664Z,100216.09
2023-01-11T13:10:20.807Z,100214.75
2023-01-11T13:12:57.637Z,100211.03
2023-01-11T13:15:53.515Z,100218.22
2023-01-11T13:18:23.338Z,100225.59
2023-01-11T13:21:28.401Z,100233.50
2023-01-11T13:24:03.589Z,100230.28
2023-01-11T13:26:40.218Z,100219.72
2023-01-11T13:29:11.632Z,100229.22
2023-01-11T13:31:38.994Z,100233.16
2023-01-11T13:34:16.893Z,100223.63
2023-01-11T13:36:48.716Z,100232.41
2023-01-11T13:39:28.621Z,100238.00
2023-01-11T13:42:03.412Z,100234.50
2023-01-11T13:44:45.357Z,100236.31
2023-01-11T13:47:25.606Z,100247.94
2023-01-11T13:50:01.167Z,100249.97
2023-01-11T13:52:27.814Z,100256.13
2023-01-11T13:55:04.221Z,100258.28
2023-01-11T13:57:55.091Z,100258.78
2023-01-11T14:00:23.855Z,100265.00
2023-01-11T14:03:05.820Z,100266.16
2023-01-11T14:05:44.619Z,100265.63
2023-01-11T14:08:11.069Z,100273.66
2023-01-11T14:10:49.548Z,100268.81
2023-01-11T14:13:53.188Z,100284.59
2023-01-11T14:16:58.341Z,100292.06
2023-01-11T14:19:50.816Z,100294.19
2023-01-11T14:22:30.841Z,100303.88
2023-01-11T14:25:02.700Z,100305.63
2023-01-11T14:27:41.509Z,100309.94
2023-01-11T14:30:16.631Z,100312.34
2023-01-11T14:33:20.510Z,100298.09
2023-01-11T14:35:59.694Z,100298.91
2023-01-11T14:38:49.999Z,100305.69
2023-01-11T14:41:45.884Z,100308.41
2023-01-11T14:44:28.657Z,100323.13
2023-01-11T14:47:28.636Z,100326.03
2023-01-11T14:50:13.463Z,100333.72
2023-01-11T14:52:42.201Z,100320.41
2023-01-11T14:55:25.778Z,100335.84
2023-01-11T14:58:02.425Z,100348.31
2023-01-11T15:00:28.943Z,100356.75
2023-01-11T15:03:01.215Z,100354.63
2023-01-11T15:05:33.659Z,100358.47
2023-01-11T15:08:15.629Z,100364.38
2023-01-11T15:10:55.343Z,100361.91
2023-01-11T15:13:25.551Z,100367.09
2023-01-11T15:16:24.575Z,100357.75
2023-01-11T15:18:51.428Z,100367.09
2023-01-11T15:21:27.607Z,100362.13
2023-01-11T15:23:57.577Z,100364.19
2023-01-11T15:26:26.907Z,100365.41
2023-01-11T15:28:58.478Z,100367.38
2023-01-11T15:31:54.377Z,100355.22
2023-01-11T15:34:20.892Z,100359.31
2023-01-11T15:37:11.413Z,100356.56
2023-01-11T15:39:56.610Z,100353.88
2023-01-11T15:42:49.342Z,100355.25
2023-01-11T15:45:18.942Z,100353.78
2023-01-11T15:48:11.711Z,100353.22
2023-01-11T15:50:57.010Z,100352.03
2023-01-11T15:53:23.505Z,100349.47
2023-01-11T15:56:28.533Z,100338.63
2023-01-11T15:59:33.834Z,100334.50
2023-01-11T16:02:15.625Z,100332.56
2023-01-11T16:04:51.600Z,100345.25
2023-01-11T16:07:46.602Z,100346.75
2023-01-11T16:10:44.005Z,100350.16
2023-01-11T16:13:19.773Z,100354.22
2023-01-11T16:16:05.281Z,100356.22
2023-01-11T16:18:56.856Z,100369.28
2023-01-11T16:21:34.040Z,100364.13
2023-01-11T16:24:16.390Z,100369.34
2023-01-11T16:26:43.928Z,100372.41
2023-01-11T16:29:14.913Z,100377.06
2023-01-11T16:31:58.741Z,100378.25
2023-01-11T16:34:27.053Z,100385.16
2023-01-11T16:36:53.607Z,100388.91
2023-01-11T16:39:23.593Z,100387.09
2023-01-11T16:41:55.908Z,100390.84
2023-01-11T16:44:29.998Z,100381.84
2023-01-11T16:47:16.808Z,100395.44
2023-01-11T16:49:48.811Z,100392.66
2023-01-11T16:52:27.579Z,100387.84
2023-01-11T16:54:56.072Z,100392.66
2023-01-11T16:57:30.294Z,100391.81
2023-01-11T17:00:03.327Z,100397.81
2023-01-11T17:02:32.768Z,100389.13
2023-01-11T17:04:59.480Z,100391.66
2023-01-11T17:07:30.492Z,100384.66
2023-01-11T17:10:21.112Z,100386.72
2023-01-11T17:13:33.982Z,100389.56
2023-01-11T17:16:08.319Z,100380.81
2023-01-11T17:18:38.633Z,100389.72
2023-01-11T17:21:06.775Z,100398.09
2023-01-11T17:23:33.483Z,100397.03
2023-01-11T17:26:01.303Z,100389.00
2023-01-11T17:28:28.993Z,100392.13
2023-01-11T17:30:55.817Z,100400.28
2023-01-11T17:33:33.389Z,100398.97
2023-01-11T17:36:01.717Z,100401.13
2023-01-11T17:38:29.846Z,100398.03
2023-01-11T17:40:57.721Z,100395.28
2023-01-11T17:43:47.771Z,100406.88
2023-01-11T17:46:27.404Z,100404.31
2023-01-11T17:48:59.721Z,100404.91
2023-01-11T17:51:28.721Z,100405.78
2023-01-11T17:53:55.346Z,100405.09
2023-01-11T17:56:41.529Z,100400.34
2023-01-11T17:59:11.220Z,100407.72
2023-01-11T18:01:38.179Z,100400.84
2023-01-11T18:04:04.975Z,100402.91
2023-01-11T18:06:40.406Z,100403.03
2023-01-11T18:09:28.870Z,100402.03
2023-01-11T18:12:33.904Z,100394.06
2023-01-11T18:15:05.694Z,100403.09
2023-01-11T18:17:32.235Z,100401.69
2023-01-11T18:20:00.177Z,100404.19
2023-01-11T18:22:40.387Z,100410.13
2023-01-11T18:25:19.142Z,100400.66
2023-01-11T18:27:46.949Z,100392.66
2023-01-11T18:30:31.801Z,100409.75
2023-01-11T18:33:01.913Z,100415.75
2023-01-11T18:35:29.603Z,100425.06
2023-01-11T18:37:56.381Z,100420.19
2023-01-11T18:40:22.949Z,100423.56
2023-01-11T18:42:52.078Z,100426.25
2023-01-11T18:45:20.094Z,100421.16
2023-01-11T18:47:46.732Z,100419.53
2023-01-11T18:50:14.076Z,100423.44
2023-01-11T18:52:40.971Z,100422.06
2023-01-11T18:55:11.275Z,100421.50
2023-01-11T18:57:37.849Z,100422.41
2023-01-11T19:00:04.830Z,100421.56
2023-01-11T19:05:20.915Z,100413.19
2023-01-11T19:07:48.460Z,100409.59
2023-01-11T19:10:17.070Z,100409.53
2023-01-11T19:12:44.665Z,100411.13
2023-01-11T19:15:12.559Z,100405.56
2023-01-11T19:17:39.937Z,100407.06
2023-01-11T19:20:09.096Z,100409.13
2023-01-11T19:22:37.117Z,100399.91
2023-01-11T19:25:04.727Z,100413.19
2023-01-11T19:27:31.331Z,100409.25
2023-01-11T19:29:58.181Z,100404.97
2023-01-11T19:32:25.719Z,100395.44
2023-01-11T19:34:53.253Z,100394.00
2023-01-11T19:37:20.704Z,100399.91
2023-01-11T19:39:47.322Z,100388.66
2023-01-11T19:42:13.935Z,100383.34
2023-01-11T19:44:40.486Z,100382.13
2023-01-11T19:47:13.455Z,100384.59
2023-01-11T19:49:41.497Z,100389.75
2023-01-11T19:52:13.241Z,100375.44
2023-01-11T19:54:44.499Z,100375.72
2023-01-11T19:57:18.909Z,100369.75
2023-01-11T19:59:46.098Z,100376.41
2023-01-11T20:02:15.448Z,100369.22
2023-01-11T20:04:42.279Z,100368.28
2023-01-11T20:07:10.758Z,100375.28
2023-01-11T20:09:37.884Z,100367.59
2023-01-11T20:12:06.026Z,100369.22
2023-01-11T20:14:33.857Z,100377.13
2023-01-11T20:17:00.941Z,100370.34
2023-01-11T20:19:27.808Z,100373.66
2023-01-11T20:21:54.509Z,100363.13
2023-01-11T20:24:27.859Z,100374.13
2023-01-11T20:26:55.864Z,100359.59
2023-01-11T20:29:22.509Z,100360.34
2023-01-11T20:31:49.559Z,100364.22
2023-01-11T20:34:17.472Z,100363.28
2023-01-11T20:36:45.012Z,100346.25
2023-01-11T20:39:11.959Z,100349.47
2023-01-11T20:41:47.379Z,100355.16
2023-01-11T20:44:18.382Z,100345.31
2023-01-11T20:46:47.993Z,100341.31
2023-01-11T20:49:16.738Z,100321.03
2023-01-11T20:51:44.544Z,100322.44
2023-01-11T20:54:11.917Z,100320.53
2023-01-11T20:56:39.333Z,100323.47
2023-01-11T20:59:07.851Z,100306.59
2023-01-11T21:01:36.167Z,100310.84
2023-01-11T21:04:08.213Z,100310.06
2023-01-11T21:06:37.276Z,100311.84
2023-01-11T21:09:05.061Z,100302.84
2023-01-11T21:11:32.005Z,100305.50
2023-01-11T21:13:59.949Z,100300.16
2023-01-11T21:16:28.356Z,100301.25
2023-01-11T21:18:57.087Z,100292.69
2023-01-11T21:21:24.689Z,100288.88
2023-01-11T21:23:58.589Z,100291.06
2023-01-11T21:26:26.719Z,100286.50
2023-01-11T21:28:59.374Z,100292.47
2023-01-11T21:31:28.188Z,100281.59
2023-01-11T21:33:55.174Z,100285.44
2023-01-11T21:36:23.928Z,100281.88
2023-01-11T21:38:51.088Z,100275.66
2023-01-11T21:41:43.242Z,100269.97
2023-01-11T21:44:11.334Z,100272.88
2023-01-11T21:46:39.112Z,100261.81
2023-01-11T21:49:06.219Z,100264.88
2023-01-11T21:51:34.512Z,100251.78
2023-01-11T21:54:08.237Z,100265.97
2023-01-11T21:56:35.443Z,100256.28
2023-01-11T21:59:02.137Z,100252.00
2023-01-11T22:01:28.757Z,100242.53
2023-01-11T22:03:55.914Z,100243.63
2023-01-11T22:06:23.011Z,100234.34
2023-01-11T22:08:49.730Z,100245.06
2023-01-11T22:11:17.612Z,100245.75
2023-01-11T22:13:44.499Z,100233.88
2023-01-11T22:16:14.065Z,100229.63
2023-01-11T22:18:41.258Z,100233.44
2023-01-11T22:21:10.070Z,100218.97
2023-01-11T22:23:37.271Z,100231.47
2023-01-11T22:26:12.746Z,100216.69
2023-01-11T22:28:58.692Z,100211.16
2023-01-11T22:31:27.396Z,100209.44
2023-01-11T22:33:55.346Z,100207.00
2023-01-11T22:36:23.165Z,100199.78
2023-01-11T22:38:50.045Z,100197.47
2023-01-11T22:41:16.995Z,100200.47
2023-01-11T22:43:44.659Z,100197.03
2023-01-11T22:46:17.067Z,100193.03
2023-01-11T22:48:43.835Z,100184.53
2023-01-11T22:51:11.509Z,100196.81
2023-01-11T22:53:39.705Z,100190.34
2023-01-11T22:56:10.379Z,100174.44
2023-01-11T22:58:37.232Z,100172.00
2023-01-11T23:01:14.101Z,100167.34
2023-01-11T23:03:41.667Z,100171.28
2023-01-11T23:06:09.468Z,100170.00
2023-01-11T23:08:43.844Z,100157.69
2023-01-11T23:11:35.481Z,100165.16
2023-01-11T23:14:08.388Z,100159.03
2023-01-11T23:16:36.271Z,100155.34
2023-01-11T23:19:05.223Z,100160.00
2023-01-11T23:21:31.980Z,100145.72
2023-01-11T23:24:01.429Z,100158.72
2023-01-11T23:26:28.071Z,100148.19
2023-01-11T23:28:54.683Z,100153.09
2023-01-11T23:31:23.178Z,100132.81
2023-01-11T23:33:53.237Z,100137.44
2023-01-11T23:36:21.566Z,100135.88
2023-01-11T23:38:48.625Z,100120.16
2023-01-11T23:41:36.659Z,100125.56
2023-01-11T23:44:11.666Z,100122.59
2023-01-11T23:46:57.802Z,100110.84
2023-01-11T23:49:25.095Z,100123.53
2023-01-11T23:51:52.382Z,100110.75
2023-01-11T23:54:19.143Z,100123.63
2023-01-11T23:56:46.067Z,100118.19
2023-01-11T23:59:12.741Z,100124.47
